Time;durP1;ratioP1;P1;durP2;ratioP2;P2;SDS_P1;SDS_P2;PMS_P1;PMS_P2;Temp;Humidity;BMP_temperature;BMP_pressure;BME280_temperature;BME280_humidity;BME280_pressure;Samples;Min_cycle;Max_cycle;Signal;HPM_P1;HPM_P2
2023/10/27 00:00:35;;;;;;;6.57;0.55;;;;;;;13.50;79.31;98818.25;4972721;28;20037;-74
2023/10/27 00:03:01;;;;;;;8.27;0.60;;;;;;;13.45;79.27;98812.31;4972436;28;20078;-73
2023/10/27 00:05:26;;;;;;;7.03;0.50;;;;;;;13.43;79.40;98811.50;4972535;28;20098;-73
2023/10/27 00:07:51;;;;;;;5.97;0.40;;;;;;;13.42;79.17;98802.69;4972926;28;20035;-73
2023/10/27 00:10:17;;;;;;;6.63;0.80;;;;;;;13.40;79.18;98815.13;4972572;28;20592;-74
2023/10/27 00:12:43;;;;;;;8.33;0.93;;;;;;;13.40;79.12;98817.75;4972468;28;20468;-74
2023/10/27 00:15:08;;;;;;;5.65;0.60;;;;;;;13.37;79.05;98817.84;4972371;28;20681;-74
2023/10/27 00:17:34;;;;;;;5.90;0.60;;;;;;;13.34;79.13;98825.91;4972341;28;20039;-73
2023/10/27 00:19:59;;;;;;;7.93;0.60;;;;;;;13.33;79.15;98821.53;4972473;28;20031;-74
2023/10/27 00:22:25;;;;;;;7.47;0.60;;;;;;;13.31;79.07;98831.31;4972480;28;20042;-74
2023/10/27 00:24:51;;;;;;;7.43;0.60;;;;;;;13.33;79.04;98826.81;4972396;28;20534;-73
2023/10/27 00:27:16;;;;;;;10.73;0.80;;;;;;;13.32;78.86;98827.75;4971963;28;20062;-73
2023/10/27 00:29:42;;;;;;;7.47;0.60;;;;;;;13.31;78.84;98833.97;4972141;28;20031;-74
2023/10/27 00:32:07;;;;;;;9.50;0.80;;;;;;;13.29;78.95;98841.97;4971891;28;20529;-74
2023/10/27 00:34:33;;;;;;;8.53;0.80;;;;;;;13.31;78.92;98847.19;4971907;28;20031;-74
2023/10/27 00:36:58;;;;;;;10.20;0.90;;;;;;;13.31;78.51;98852.47;4972413;28;20035;-74
2023/10/27 00:39:23;;;;;;;8.77;0.60;;;;;;;13.32;78.74;98846.25;4971721;28;20059;-73
2023/10/27 00:41:49;;;;;;;10.80;0.80;;;;;;;13.33;78.53;98853.25;4971908;28;20043;-74
2023/10/27 00:44:14;;;;;;;9.43;0.60;;;;;;;13.32;78.49;98857.72;4972460;28;20302;-73
2023/10/27 00:46:40;;;;;;;6.87;0.70;;;;;;;13.33;78.40;98837.41;4971949;28;20059;-73
2023/10/27 00:49:05;;;;;;;11.13;1.00;;;;;;;13.33;78.35;98840.94;4971590;28;20027;-74
2023/10/27 00:51:31;;;;;;;7.18;0.80;;;;;;;13.33;78.35;98834.75;4974660;28;20088;-73
2023/10/27 00:53:58;;;;;;;10.63;1.10;;;;;;;13.32;78.35;98825.97;4985440;28;20105;-74
2023/10/27 00:56:25;;;;;;;7.40;0.60;;;;;;;13.32;78.11;98825.97;4971503;28;20400;-74
2023/10/27 00:58:50;;;;;;;11.82;0.80;;;;;;;13.37;78.25;98828.44;4971801;28;20034;-74
2023/10/27 01:01:17;;;;;;;12.67;0.73;;;;;;;13.38;78.06;98821.38;4954334;28;20019;-74
2023/10/27 01:03:44;;;;;;;7.70;1.13;;;;;;;13.42;77.76;98836.19;4971207;28;20497;-74
2023/10/27 01:06:10;;;;;;;6.80;0.80;;;;;;;13.43;77.71;98825.59;4971337;28;20059;-74
2023/10/27 01:08:35;;;;;;;8.65;0.70;;;;;;;13.44;77.74;98824.69;4971301;28;20395;-77
2023/10/27 01:11:02;;;;;;;5.72;0.60;;;;;;;13.45;77.44;98823.75;4971431;28;20034;-75
2023/10/27 01:13:27;;;;;;;7.20;0.63;;;;;;;13.49;77.53;98829.75;4971461;28;20111;-74
2023/10/27 01:15:53;;;;;;;6.70;0.73;;;;;;;13.49;77.45;98829.75;4971612;28;20034;-74
2023/10/27 01:18:18;;;;;;;6.60;0.73;;;;;;;13.50;77.43;98828.84;4971378;28;20031;-74
2023/10/27 01:20:43;;;;;;;6.43;0.60;;;;;;;13.52;77.50;98828.78;4971231;28;20033;-75
2023/10/27 01:23:09;;;;;;;7.37;0.70;;;;;;;13.50;77.39;98831.47;4971499;28;20035;-75
2023/10/27 01:25:34;;;;;;;10.47;0.77;;;;;;;13.46;77.39;98830.75;4953508;28;20125;-73
2023/10/27 01:28:00;;;;;;;10.67;1.00;;;;;;;13.42;77.52;98823.84;4970933;28;20109;-74
2023/10/27 01:30:27;;;;;;;6.03;0.50;;;;;;;13.40;77.60;98832.75;4971037;28;20314;-73
2023/10/27 01:32:53;;;;;;;10.10;0.70;;;;;;;13.37;77.52;98828.44;4970910;28;20509;-74
2023/10/27 01:35:18;;;;;;;11.50;0.50;;;;;;;13.33;77.52;98827.72;4971356;28;20051;-73
2023/10/27 01:37:43;;;;;;;10.20;0.70;;;;;;;13.31;77.67;98839.25;4970929;28;20038;-73
2023/10/27 01:40:09;;;;;;;8.43;0.60;;;;;;;13.26;77.74;98835.94;4971005;28;20093;-73
2023/10/27 01:42:36;;;;;;;16.65;1.13;;;;;;;13.21;77.61;98834.31;4970426;28;20027;-73
2023/10/27 01:45:03;;;;;;;6.47;0.73;;;;;;;13.18;77.80;98834.44;4970679;28;20485;-73
2023/10/27 01:47:29;;;;;;;7.15;0.63;;;;;;;13.17;77.58;98837.13;4970612;28;20062;-73
2023/10/27 01:49:55;;;;;;;11.33;0.87;;;;;;;13.11;77.84;98840.88;4970919;28;20062;-74
2023/10/27 01:52:20;;;;;;;5.88;0.50;;;;;;;13.11;77.76;98837.38;4980387;28;20550;-74
2023/10/27 01:54:46;;;;;;;7.87;0.60;;;;;;;13.08;77.82;98833.06;4977921;28;20042;-73
2023/10/27 01:57:11;;;;;;;9.27;0.90;;;;;;;13.09;78.09;98850.63;4970963;28;20041;-74
2023/10/27 01:59:37;;;;;;;12.05;0.80;;;;;;;13.11;77.70;98863.81;4970912;28;20041;-74
2023/10/27 02:02:02;;;;;;;4.43;0.47;;;;;;;13.11;78.05;98859.34;4971098;28;20113;-74
2023/10/27 02:04:27;;;;;;;10.90;0.70;;;;;;;13.10;78.22;98844.41;4970340;28;20060;-73
2023/10/27 02:06:54;;;;;;;7.83;0.67;;;;;;;13.10;78.22;98851.50;4970788;28;20152;-73
2023/10/27 02:09:20;;;;;;;8.57;0.60;;;;;;;13.07;78.21;98842.78;4970615;28;20491;-75
2023/10/27 02:11:46;;;;;;;8.83;1.03;;;;;;;13.07;78.31;98848.06;4970787;28;20042;-74
2023/10/27 02:14:12;;;;;;;8.80;0.80;;;;;;;13.08;78.24;98840.97;4970963;28;20034;-74
2023/10/27 02:16:37;;;;;;;10.37;1.03;;;;;;;13.08;78.28;98843.63;4970867;28;20407;-74
2023/10/27 02:19:02;;;;;;;6.13;0.60;;;;;;;13.07;78.10;98841.91;4970287;28;20031;-74
2023/10/27 02:21:28;;;;;;;12.30;0.93;;;;;;;13.07;78.35;98836.63;4970739;28;20065;-73
2023/10/27 02:23:53;;;;;;;10.37;0.80;;;;;;;13.06;78.11;98834.88;4970587;28;20058;-73
2023/10/27 02:26:19;;;;;;;6.30;0.63;;;;;;;13.02;78.02;98831.53;4970377;28;20027;-73
2023/10/27 02:28:45;;;;;;;6.18;0.40;;;;;;;13.01;78.03;98832.41;4970699;28;20528;-74
2023/10/27 02:31:10;;;;;;;5.13;0.50;;;;;;;12.99;78.19;98822.84;4970243;28;20106;-74
2023/10/27 02:33:36;;;;;;;7.97;0.60;;;;;;;12.96;77.96;98828.25;4970232;28;20041;-74
2023/10/27 02:36:02;;;;;;;9.50;0.60;;;;;;;12.96;78.16;98828.25;4970776;28;20019;-74
2023/10/27 02:38:27;;;;;;;6.03;0.60;;;;;;;12.93;78.41;98829.19;4970312;28;20407;-75
2023/10/27 02:40:53;;;;;;;6.57;0.60;;;;;;;12.91;78.13;98831.91;4970277;28;20062;-74
2023/10/27 02:43:18;;;;;;;7.83;0.80;;;;;;;12.90;78.15;98824.91;4970390;28;20207;-74
2023/10/27 02:45:44;;;;;;;6.67;0.63;;;;;;;12.87;77.93;98824.16;4970347;28;20651;-74
2023/10/27 02:48:09;;;;;;;4.80;0.50;;;;;;;12.84;78.06;98821.63;4970277;28;20508;-74
2023/10/27 02:50:35;;;;;;;4.50;0.57;;;;;;;12.77;78.15;98823.63;4970333;28;20495;-74
2023/10/27 02:53:00;;;;;;;6.38;0.60;;;;;;;12.70;78.12;98824.78;4985379;28;20027;-74
2023/10/27 02:55:26;;;;;;;8.43;1.20;;;;;;;12.61;78.24;98824.16;4975242;28;20030;-73
2023/10/27 02:57:51;;;;;;;7.67;0.80;;;;;;;12.57;78.46;98817.28;4973787;28;20058;-74
2023/10/27 03:00:19;;;;;;;8.20;0.60;;;;;;;12.52;78.45;98816.59;4973791;28;20085;-74
2023/10/27 03:02:44;;;;;;;6.83;0.40;;;;;;;12.47;78.59;98811.47;4973453;28;20365;-73
2023/10/27 03:05:09;;;;;;;7.75;0.60;;;;;;;12.44;78.23;98816.00;4956080;28;20035;-74
2023/10/27 03:07:35;;;;;;;3.53;0.50;;;;;;;12.40;78.35;98815.25;4973862;28;20026;-73
2023/10/27 03:10:00;;;;;;;6.97;0.60;;;;;;;12.40;78.44;98814.38;4973836;28;20378;-73
2023/10/27 03:12:25;;;;;;;7.50;0.50;;;;;;;12.38;78.35;98816.19;4973804;28;20046;-73
2023/10/27 03:14:51;;;;;;;6.00;0.50;;;;;;;12.35;78.28;98812.75;4973716;28;20054;-73
2023/10/27 03:17:16;;;;;;;6.40;0.70;;;;;;;12.34;78.62;98805.75;4973412;28;20053;-73
2023/10/27 03:19:41;;;;;;;8.30;0.40;;;;;;;12.33;78.13;98793.47;4973400;28;20270;-73
2023/10/27 03:22:07;;;;;;;7.13;0.47;;;;;;;12.34;78.41;98803.09;4973462;28;20126;-73
2023/10/27 03:24:33;;;;;;;3.27;0.47;;;;;;;12.35;78.50;98811.91;4973368;28;20403;-74
2023/10/27 03:26:58;;;;;;;7.80;0.52;;;;;;;12.37;78.35;98819.75;4973110;28;20035;-74
2023/10/27 03:29:24;;;;;;;6.10;0.50;;;;;;;12.34;78.48;98810.19;4973335;28;20471;-73
2023/10/27 03:31:52;;;;;;;9.73;0.70;;;;;;;12.31;78.48;98813.78;4973461;28;20072;-73
2023/10/27 03:34:17;;;;;;;7.85;0.60;;;;;;;12.27;78.09;98814.81;4973205;28;20042;-74
2023/10/27 03:36:43;;;;;;;6.47;0.57;;;;;;;12.24;78.34;98814.91;4973092;28;20035;-73
2023/10/27 03:39:08;;;;;;;5.23;0.60;;;;;;;12.21;78.37;98815.03;4972396;28;20110;-73
2023/10/27 03:41:34;;;;;;;7.03;0.65;;;;;;;12.17;78.56;98819.53;4973083;28;20031;-74
2023/10/27 03:43:59;;;;;;;4.13;0.30;;;;;;;12.17;78.52;98823.94;4973350;28;20034;-73
2023/10/27 03:46:24;;;;;;;6.93;0.43;;;;;;;12.16;78.40;98822.22;4973122;28;20134;-73
2023/10/27 03:48:50;;;;;;;4.80;0.60;;;;;;;12.14;78.29;98827.56;4972955;28;20038;-74
2023/10/27 03:51:15;;;;;;;7.47;0.68;;;;;;;12.13;78.46;98830.22;4973794;28;20470;-73
2023/10/27 03:53:41;;;;;;;5.77;0.87;;;;;;;12.12;78.47;98831.16;4988839;28;20486;-74
2023/10/27 03:56:06;;;;;;;5.60;0.40;;;;;;;12.09;78.48;98834.78;4972758;28;20587;-73
2023/10/27 03:58:32;;;;;;;3.67;0.40;;;;;;;12.08;78.56;98837.44;4972555;28;20105;-73
2023/10/27 04:00:57;;;;;;;3.90;0.50;;;;;;;12.06;78.40;98832.25;4972800;28;20639;-74
2023/10/27 04:03:23;;;;;;;7.13;0.43;;;;;;;12.02;78.26;98836.75;4972573;28;20105;-74
2023/10/27 04:05:48;;;;;;;6.77;0.60;;;;;;;12.02;78.69;98823.56;4971782;28;20075;-73
2023/10/27 04:08:14;;;;;;;7.18;0.70;;;;;;;12.02;78.59;98835.88;4972642;28;20116;-74
2023/10/27 04:10:39;;;;;;;3.90;0.50;;;;;;;12.03;78.34;98834.94;4972572;28;20034;-73
2023/10/27 04:13:07;;;;;;;5.37;0.80;;;;;;;12.02;78.48;98822.69;4972416;28;20023;-73
2023/10/27 04:15:33;;;;;;;4.13;0.55;;;;;;;12.01;78.13;98823.59;4972347;28;20117;-74
2023/10/27 04:17:58;;;;;;;4.82;0.60;;;;;;;11.98;78.44;98814.00;4972390;28;20114;-74
2023/10/27 04:20:23;;;;;;;7.77;0.60;;;;;;;11.97;78.26;98806.13;4972241;28;20045;-74
2023/10/27 04:22:49;;;;;;;7.03;0.70;;;;;;;11.91;78.42;98813.31;4972662;28;20031;-73
2023/10/27 04:25:15;;;;;;;7.53;0.80;;;;;;;11.89;78.55;98803.72;4972514;28;20030;-74
2023/10/27 04:27:40;;;;;;;7.22;0.60;;;;;;;11.88;78.54;98802.00;4953054;29;20393;-74
2023/10/27 04:30:07;;;;;;;6.38;0.80;;;;;;;11.89;78.78;98803.72;4952951;29;20034;-74
2023/10/27 04:32:38;;;;;;;8.73;0.70;;;;;;;11.87;78.38;98805.56;4952769;29;20039;-74
2023/10/27 04:35:04;;;;;;;7.78;0.77;;;;;;;11.85;78.62;98796.81;4953267;29;20035;-73
2023/10/27 04:37:32;;;;;;;7.13;0.80;;;;;;;11.85;78.78;98796.81;4953110;29;20393;-73
2023/10/27 04:39:58;;;;;;;5.43;0.70;;;;;;;11.85;78.60;98796.81;4952876;29;20027;-74
2023/10/27 04:42:23;;;;;;;5.30;0.80;;;;;;;11.82;78.72;98792.53;4952959;29;20035;-73
2023/10/27 04:44:49;;;;;;;5.55;0.65;;;;;;;11.82;78.24;98794.28;4952760;29;20044;-74
2023/10/27 04:47:14;;;;;;;6.83;0.97;;;;;;;11.78;78.57;98783.84;4952667;29;20407;-73
2023/10/27 04:49:40;;;;;;;7.50;1.20;;;;;;;11.74;78.37;98784.00;4952489;29;20031;-73
2023/10/27 04:52:05;;;;;;;8.03;0.80;;;;;;;11.67;78.31;98788.59;4967559;28;20049;-73
2023/10/27 04:54:32;;;;;;;4.45;0.80;;;;;;;11.60;78.31;98800.25;4981374;28;20026;-75
2023/10/27 04:56:58;;;;;;;8.25;1.00;;;;;;;11.47;78.30;98797.16;4971992;28;20066;-73
2023/10/27 04:59:23;;;;;;;7.37;1.17;;;;;;;11.41;78.60;98792.09;4971841;28;20417;-74
2023/10/27 05:01:49;;;;;;;8.20;0.90;;;;;;;11.40;78.70;98785.94;4954425;28;20037;-73
2023/10/27 05:04:14;;;;;;;7.87;1.00;;;;;;;11.37;78.73;98785.19;4971505;28;20663;-73
2023/10/27 05:06:39;;;;;;;7.77;1.57;;;;;;;11.35;78.87;98774.69;4971603;28;20086;-73
2023/10/27 05:09:05;;;;;;;5.53;1.20;;;;;;;11.32;79.15;98775.63;4971607;28;20031;-74
2023/10/27 05:11:30;;;;;;;7.03;1.30;;;;;;;11.27;78.67;98774.06;4971648;28;20348;-73
2023/10/27 05:13:55;;;;;;;7.33;1.20;;;;;;;11.24;78.90;98768.91;4971560;28;20033;-73
2023/10/27 05:16:21;;;;;;;9.07;1.10;;;;;;;11.20;79.01;98768.13;4971325;28;20479;-74
2023/10/27 05:18:47;;;;;;;6.23;0.90;;;;;;;11.20;79.43;98768.97;4970871;28;20030;-73
2023/10/27 05:21:16;;;;;;;6.35;1.00;;;;;;;11.22;78.78;98757.56;4971659;28;20022;-74
2023/10/27 05:23:42;;;;;;;7.72;0.80;;;;;;;11.23;78.58;98762.75;4971353;28;20034;-74
2023/10/27 05:26:07;;;;;;;7.55;0.90;;;;;;;11.23;78.87;98759.28;4971100;28;20073;-73
2023/10/27 05:28:32;;;;;;;9.23;0.90;;;;;;;11.22;78.77;98761.03;4971328;28;20069;-73
2023/10/27 05:30:58;;;;;;;11.40;1.13;;;;;;;11.23;78.46;98767.19;4971153;28;20399;-74
2023/10/27 05:33:23;;;;;;;7.37;1.30;;;;;;;11.20;78.18;98763.69;4953824;28;20231;-73
2023/10/27 05:35:48;;;;;;;6.93;1.67;;;;;;;11.16;78.63;98759.44;4971650;28;20038;-74
2023/10/27 05:38:15;;;;;;;8.47;1.30;;;;;;;11.11;78.93;98748.19;4971411;28;20034;-74
2023/10/27 05:40:40;;;;;;;12.38;1.75;;;;;;;11.11;78.50;98755.25;4971129;28;20115;-74
2023/10/27 05:43:06;;;;;;;7.27;1.50;;;;;;;11.09;78.86;98754.41;4970728;28;20052;-74
2023/10/27 05:45:31;;;;;;;13.32;2.85;;;;;;;11.05;78.75;98741.31;4970990;28;20035;-74
2023/10/27 05:47:56;;;;;;;8.87;1.90;;;;;;;11.05;78.67;98743.13;4970788;28;20118;-73
2023/10/27 05:50:22;;;;;;;9.13;1.80;;;;;;;11.05;78.94;98743.97;4970933;28;20409;-73
2023/10/27 05:52:47;;;;;;;8.70;1.53;;;;;;;11.06;78.75;98735.16;4984431;28;20388;-73
2023/10/27 05:55:12;;;;;;;10.47;2.23;;;;;;;11.05;78.71;98730.78;4974406;28;20109;-73
2023/10/27 05:57:38;;;;;;;9.63;2.10;;;;;;;11.05;78.84;98740.47;4971166;28;20394;-73
2023/10/27 06:00:04;;;;;;;11.73;2.03;;;;;;;11.04;78.54;98738.75;4971546;28;20122;-73
2023/10/27 06:02:29;;;;;;;12.35;2.28;;;;;;;11.05;78.66;98732.56;4970944;28;20038;-73
2023/10/27 06:04:58;;;;;;;9.33;1.83;;;;;;;11.05;78.53;98732.56;4970732;28;20030;-74
2023/10/27 06:07:23;;;;;;;10.27;1.70;;;;;;;11.04;78.36;98730.84;4970883;28;20058;-73
2023/10/27 06:09:49;;;;;;;8.30;1.73;;;;;;;11.02;78.62;98733.53;4971170;28;20525;-73
2023/10/27 06:12:15;;;;;;;7.47;1.50;;;;;;;11.01;78.29;98736.22;4970847;28;20031;-73
2023/10/27 06:14:44;;;;;;;8.38;1.70;;;;;;;10.97;77.91;98738.06;4956897;28;20055;-73
2023/10/27 06:17:12;;;;;;;8.02;1.90;;;;;;;10.96;78.13;98748.63;4963959;28;20620;-73
2023/10/27 06:19:37;;;;;;;8.13;2.15;;;;;;;10.93;78.08;98738.19;4951630;28;20681;-73
2023/10/27 06:22:04;;;;;;;8.20;1.30;;;;;;;10.90;78.44;98750.56;4951589;29;20118;-74
2023/10/27 06:24:29;;;;;;;8.85;2.53;;;;;;;10.87;77.99;98753.28;4959176;28;20408;-73
2023/10/27 06:26:55;;;;;;;8.50;1.90;;;;;;;10.83;78.50;98754.28;4955198;28;20042;-75
2023/10/27 06:29:21;;;;;;;7.97;1.80;;;;;;;10.80;78.46;98770.19;4972187;28;20050;-74
2023/10/27 06:31:46;;;;;;;9.65;1.98;;;;;;;10.77;78.29;98775.53;4957252;28;20069;-75
2023/10/27 06:34:12;;;;;;;5.67;1.33;;;;;;;10.74;78.32;98770.38;4963614;28;20031;-74
2023/10/27 06:36:38;;;;;;;6.65;1.15;;;;;;;10.74;78.51;98765.09;4955331;29;20034;-74
2023/10/27 06:39:03;;;;;;;6.33;1.27;;;;;;;10.73;78.57;98758.09;4955048;29;20023;-74
2023/10/27 06:41:28;;;;;;;5.23;1.10;;;;;;;10.73;78.68;98763.34;4937643;29;20026;-74
2023/10/27 06:43:54;;;;;;;6.93;1.10;;;;;;;10.73;78.32;98776.50;4955100;29;20023;-74
2023/10/27 06:46:19;;;;;;;4.27;1.17;;;;;;;10.70;78.30;98782.75;4966341;28;20440;-75
2023/10/27 06:48:44;;;;;;;8.35;2.03;;;;;;;10.68;78.54;98781.94;4973836;28;20031;-75
2023/10/27 06:51:10;;;;;;;5.47;1.30;;;;;;;10.69;78.26;98781.03;4974643;28;20034;-76
2023/10/27 06:53:35;;;;;;;6.23;1.30;;;;;;;10.70;78.25;98784.50;4990716;28;20058;-74
2023/10/27 06:56:00;;;;;;;9.17;1.50;;;;;;;10.70;78.52;98784.50;4974228;28;20030;-73
2023/10/27 06:58:26;;;;;;;6.43;1.27;;;;;;;10.68;78.40;98788.94;4974070;28;20034;-74
2023/10/27 07:00:51;;;;;;;6.33;1.47;;;;;;;10.68;78.40;98788.94;4974123;28;20165;-74
2023/10/27 07:03:17;;;;;;;7.53;1.60;;;;;;;10.68;78.24;98787.19;4973668;28;20263;-74
2023/10/27 07:05:42;;;;;;;6.70;1.20;;;;;;;10.70;78.09;98785.38;4973644;28;20555;-76
2023/10/27 07:08:09;;;;;;;8.10;1.40;;;;;;;10.71;78.43;98791.50;4973157;28;20166;-75
2023/10/27 07:10:35;;;;;;;9.80;0.93;;;;;;;10.75;78.36;98794.00;4963230;28;20110;-74
2023/10/27 07:13:00;;;;;;;8.52;1.00;;;;;;;10.75;78.21;98795.78;4968327;28;20158;-76
2023/10/27 07:15:25;;;;;;;6.23;1.10;;;;;;;10.74;78.91;98792.28;4970805;28;20035;-74
2023/10/27 07:17:51;;;;;;;10.00;1.30;;;;;;;10.75;78.92;98795.78;4971741;28;20077;-76
2023/10/27 07:20:17;;;;;;;7.00;0.98;;;;;;;10.83;78.59;98800.81;4969630;28;20031;-73
2023/10/27 07:22:43;;;;;;;6.87;0.90;;;;;;;10.86;78.82;98798.97;4973111;28;20023;-74
2023/10/27 07:25:08;;;;;;;9.10;1.10;;;;;;;10.92;78.99;98805.84;4973030;28;20034;-73
2023/10/27 07:27:34;;;;;;;9.20;1.13;;;;;;;10.97;79.13;98808.31;4953956;28;20047;-73
2023/10/27 07:30:00;;;;;;;8.20;1.30;;;;;;;11.03;78.91;98808.16;4953069;29;20059;-75
2023/10/27 07:32:25;;;;;;;7.33;1.20;;;;;;;11.09;78.89;98813.22;4955437;28;20039;-75
2023/10/27 07:34:51;;;;;;;11.67;1.23;;;;;;;11.23;78.52;98809.34;4947170;28;20030;-75
2023/10/27 07:37:19;;;;;;;7.53;1.60;;;;;;;11.40;78.59;98817.56;4957783;28;20038;-75
2023/10/27 07:39:45;;;;;;;10.68;1.90;;;;;;;11.60;78.22;98818.72;4952088;28;20114;-73
2023/10/27 07:42:11;;;;;;;14.03;1.70;;;;;;;11.78;77.30;98818.13;4962658;28;20545;-74
2023/10/27 07:44:36;;;;;;;10.15;2.13;;;;;;;11.98;77.00;98818.38;4968468;28;20042;-75
2023/10/27 07:47:03;;;;;;;11.67;1.83;;;;;;;12.15;76.75;98820.50;4964505;28;20406;-74
2023/10/27 07:49:28;;;;;;;9.80;2.05;;;;;;;12.34;76.02;98824.22;4964071;28;20033;-75
2023/10/27 07:51:54;;;;;;;14.70;2.00;;;;;;;12.50;75.96;98821.06;4943289;28;20039;-74
2023/10/27 07:54:19;;;;;;;13.87;1.77;;;;;;;12.69;75.63;98815.97;4960469;28;20501;-75
2023/10/27 07:56:44;;;;;;;11.80;1.80;;;;;;;12.88;75.56;98816.16;4961895;28;20015;-78
2023/10/27 07:59:10;;;;;;;15.93;1.90;;;;;;;13.07;75.17;98815.47;4954576;28;20499;-75
2023/10/27 08:01:35;;;;;;;8.93;1.75;;;;;;;13.18;74.90;98823.88;4971672;28;20027;-74
2023/10/27 08:04:02;;;;;;;16.20;2.30;;;;;;;13.25;74.62;98819.19;4963269;28;20443;-76
2023/10/27 08:06:29;;;;;;;10.85;1.58;;;;;;;13.31;74.81;98834.84;4960703;28;20158;-73
2023/10/27 08:08:55;;;;;;;8.07;1.30;;;;;;;13.36;74.71;98826.72;4948154;28;20046;-73
2023/10/27 08:11:21;;;;;;;7.50;1.40;;;;;;;13.42;74.12;98823.84;4966915;28;20562;-72
2023/10/27 08:13:47;;;;;;;7.65;1.17;;;;;;;13.53;73.89;98812.00;4960601;28;20487;-73
2023/10/27 08:16:15;;;;;;;5.72;1.10;;;;;;;13.60;73.76;98808.19;4962457;28;20047;-74
2023/10/27 08:18:41;;;;;;;9.77;1.10;;;;;;;13.63;73.94;98818.66;4965252;28;20027;-74
2023/10/27 08:21:06;;;;;;;7.72;1.08;;;;;;;13.62;73.98;98814.28;4961410;28;20023;-74
2023/10/27 08:23:32;;;;;;;10.83;1.20;;;;;;;13.61;73.57;98813.44;4962480;28;20039;-74
2023/10/27 08:25:57;;;;;;;8.13;1.17;;;;;;;13.60;73.42;98813.47;4962492;28;20033;-78
2023/10/27 08:28:22;;;;;;;5.07;0.90;;;;;;;13.46;72.69;98812.25;4960631;28;20094;-75
2023/10/27 08:30:48;;;;;;;6.83;0.90;;;;;;;13.44;73.04;98813.22;4960655;28;20022;-74
2023/10/27 08:33:16;;;;;;;9.23;1.40;;;;;;;13.49;73.52;98806.84;4962524;28;20035;-74
2023/10/27 08:35:42;;;;;;;5.88;0.70;;;;;;;13.60;73.58;98806.41;4971797;28;20097;-75
2023/10/27 08:38:08;;;;;;;10.67;1.40;;;;;;;13.82;73.64;98796.72;4971590;28;20030;-76
2023/10/27 08:40:34;;;;;;;7.43;0.90;;;;;;;14.00;73.28;98797.78;4971034;28;20038;-75
2023/10/27 08:43:02;;;;;;;8.50;0.90;;;;;;;14.23;72.02;98790.63;4962995;28;20130;-74
2023/10/27 08:45:30;;;;;;;7.15;1.00;;;;;;;14.43;71.30;98790.63;4957283;28;20499;-73
2023/10/27 08:47:55;;;;;;;7.43;1.10;;;;;;;14.44;70.36;98788.84;4967055;28;20027;-74
2023/10/27 08:50:21;;;;;;;7.47;1.10;;;;;;;14.42;70.58;98788.91;4957747;28;20070;-74
2023/10/27 08:52:48;;;;;;;15.15;1.17;;;;;;;14.41;70.28;98786.34;4959743;28;20030;-74
2023/10/27 08:55:14;;;;;;;8.48;0.98;;;;;;;14.44;70.87;98788.84;4963823;28;20034;-74
2023/10/27 08:57:40;;;;;;;6.17;0.93;;;;;;;14.54;70.85;98789.31;4964259;28;20084;-74
2023/10/27 09:00:07;;;;;;;8.50;0.98;;;;;;;14.54;69.78;98784.84;4959784;28;20045;-74
2023/10/27 09:02:34;;;;;;;7.23;1.43;;;;;;;14.58;70.70;98785.59;4964967;28;20032;-74
2023/10/27 09:05:01;;;;;;;7.30;1.02;;;;;;;14.56;70.73;98788.28;4959949;28;20042;-75
2023/10/27 09:07:26;;;;;;;6.57;1.00;;;;;;;14.59;70.75;98784.66;4963607;28;20027;-77
2023/10/27 09:09:52;;;;;;;8.73;0.90;;;;;;;14.62;70.63;98777.44;4958164;28;20557;-75
2023/10/27 09:12:30;;;;;;;8.80;0.90;;;;;;;14.70;70.00;98785.03;4961814;28;20023;-73
2023/10/27 09:15:04;;;;;;;5.78;0.90;;;;;;;14.81;69.72;98776.63;4962674;28;20078;-73
2023/10/27 09:17:29;;;;;;;6.82;1.13;;;;;;;14.88;69.18;98771.91;4947822;28;20605;-74
2023/10/27 09:20:05;;;;;;;7.77;0.97;;;;;;;14.92;68.71;98773.47;4963994;28;20095;-73
2023/10/27 09:22:31;;;;;;;8.20;1.00;;;;;;;15.10;69.45;98784.16;4961359;28;20019;-73
2023/10/27 09:25:17;;;;;;;5.87;0.80;;;;;;;15.21;67.45;98788.03;4961843;28;20510;-73
2023/10/27 09:27:45;;;;;;;5.88;1.00;;;;;;;15.42;68.30;98795.91;4946445;28;20038;-73
2023/10/27 09:30:26;;;;;;;4.63;0.93;;;;;;;15.58;68.53;98793.38;4962084;28;20174;-74
2023/10/27 09:32:51;;;;;;;12.57;1.20;;;;;;;15.76;67.53;98788.94;4946163;28;20089;-74
2023/10/27 09:35:18;;;;;;;6.57;0.80;;;;;;;15.96;68.22;98792.44;4962593;28;20034;-75
2023/10/27 09:37:46;;;;;;;5.90;1.20;;;;;;;16.08;68.32;98785.66;4965792;28;20039;-72
2023/10/27 09:40:13;;;;;;;6.43;1.33;;;;;;;16.18;67.39;98773.66;4964326;28;20105;-73
2023/10/27 09:42:40;;;;;;;7.95;1.10;;;;;;;16.32;67.38;98772.94;4961023;28;20027;-73
2023/10/27 09:45:11;;;;;;;4.97;0.77;;;;;;;16.49;67.85;98777.34;4962513;28;20035;-73
2023/10/27 09:47:50;;;;;;;4.47;0.70;;;;;;;16.65;67.37;98768.59;4964488;28;20038;-74
2023/10/27 09:50:24;;;;;;;7.93;1.15;;;;;;;16.85;65.93;98766.63;4963389;28;20035;-78
2023/10/27 09:52:50;;;;;;;5.70;0.88;;;;;;;17.07;67.46;98769.03;4962276;28;20542;-76
2023/10/27 09:55:18;;;;;;;9.18;1.00;;;;;;;17.28;66.39;98758.13;4962997;28;20019;-75
2023/10/27 09:57:45;;;;;;;11.73;1.10;;;;;;;17.50;66.34;98763.97;4962732;28;20034;-75
2023/10/27 10:00:16;;;;;;;6.80;1.23;;;;;;;17.71;65.77;98755.66;4962555;28;20179;-78
2023/10/27 10:02:42;;;;;;;6.40;0.70;;;;;;;17.88;65.43;98760.03;4963518;28;20041;-74
2023/10/27 10:05:09;;;;;;;5.07;0.90;;;;;;;18.17;63.85;98761.94;4965507;28;20403;-78
2023/10/27 10:07:37;;;;;;;4.43;0.88;;;;;;;18.35;63.08;98758.16;4966142;28;20031;-73
2023/10/27 10:10:34;;;;;;;5.23;0.60;;;;;;;18.41;62.94;98751.59;4976792;28;20031;-73
2023/10/27 10:13:08;;;;;;;6.22;0.70;;;;;;;18.51;61.13;98752.75;4959504;28;20121;-77
2023/10/27 10:15:41;;;;;;;3.92;0.40;;;;;;;18.80;61.98;98749.22;4958661;28;20026;-74
2023/10/27 10:18:33;;;;;;;4.90;0.70;;;;;;;18.86;60.89;98746.16;4965729;28;20569;-73
2023/10/27 10:20:59;;;;;;;4.13;0.43;;;;;;;19.03;61.35;98744.28;4948411;28;20104;-73
2023/10/27 10:23:47;;;;;;;5.37;0.60;;;;;;;19.25;59.10;98737.56;4965479;28;20519;-73
2023/10/27 10:26:13;;;;;;;3.97;0.50;;;;;;;19.33;57.63;98738.78;4959554;28;20046;-73
2023/10/27 10:28:41;;;;;;;4.18;0.40;;;;;;;19.34;57.00;98732.50;4956879;28;20035;-78
2023/10/27 10:31:06;;;;;;;4.03;0.50;;;;;;;19.32;57.38;98730.88;4957442;28;20038;-73
2023/10/27 10:33:32;;;;;;;6.75;0.85;;;;;;;19.24;58.28;98736.72;4957808;28;20027;-74
2023/10/27 10:36:18;;;;;;;3.83;0.40;;;;;;;19.18;56.33;98750.44;4975096;28;20042;-78
2023/10/27 10:39:10;;;;;;;4.30;0.57;;;;;;;19.25;58.08;98743.75;4975041;28;20034;-73
2023/10/27 10:41:42;;;;;;;5.28;0.60;;;;;;;19.43;58.56;98744.41;4965854;28;20142;-73
2023/10/27 10:44:14;;;;;;;3.88;0.50;;;;;;;19.61;55.49;98746.78;4968108;28;20037;-75
2023/10/27 10:46:44;;;;;;;4.32;0.40;;;;;;;19.74;53.86;98745.03;4948675;28;20041;-75
2023/10/27 10:49:21;;;;;;;4.93;0.60;;;;;;;19.83;52.24;98738.22;4967707;28;20526;-77
2023/10/27 10:51:54;;;;;;;3.00;0.30;;;;;;;19.91;52.94;98738.59;4970282;28;20022;-77
2023/10/27 10:54:25;;;;;;;4.15;0.60;;;;;;;20.15;53.71;98745.06;4970748;28;20122;-76
2023/10/27 10:56:58;;;;;;;4.32;0.75;;;;;;;20.35;52.96;98741.84;4969829;28;20034;-75
2023/10/27 10:59:24;;;;;;;4.40;0.40;;;;;;;20.54;52.52;98727.19;4947156;28;20046;-75
2023/10/27 11:01:57;;;;;;;3.23;0.40;;;;;;;20.54;52.81;98735.22;4969049;28;20050;-77
2023/10/27 11:04:33;;;;;;;4.80;0.47;;;;;;;20.52;53.00;98734.47;4965792;28;20027;-74
2023/10/27 11:07:00;;;;;;;3.20;0.30;;;;;;;20.53;52.79;98732.66;4967584;28;21631;-75
2023/10/27 11:09:26;;;;;;;5.70;0.70;;;;;;;20.39;50.76;98725.59;4968874;28;20496;-73
2023/10/27 11:11:53;;;;;;;5.28;0.52;;;;;;;20.23;52.73;98737.34;4966932;28;20093;-80
2023/10/27 11:14:18;;;;;;;3.50;0.40;;;;;;;20.08;52.99;98739.25;4966992;28;20035;-76
2023/10/27 11:16:54;;;;;;;4.70;0.67;;;;;;;19.93;52.51;98746.50;4965294;28;20098;-81
2023/10/27 11:19:19;;;;;;;3.28;0.60;;;;;;;19.85;53.51;98738.97;4967122;28;20058;-76
2023/10/27 11:21:51;;;;;;;4.60;0.67;;;;;;;19.72;53.61;98733.59;4963721;28;20039;-76
2023/10/27 11:24:16;;;;;;;4.45;0.50;;;;;;;19.67;53.82;98724.16;4965716;28;20034;-73
2023/10/27 11:26:42;;;;;;;5.30;0.53;;;;;;;19.61;53.73;98728.09;4966948;28;21026;-76
2023/10/27 11:29:08;;;;;;;4.72;0.40;;;;;;;19.55;53.99;98725.84;4959850;28;20035;-76